createdAt,value
2018-12-19T05:28:50.456Z,0.00
2018-12-19T05:30:50.363Z,0.02
2018-12-19T05:32:50.378Z,0.02
2018-12-19T05:34:49.818Z,0.00
2018-12-19T05:36:50.069Z,0.02
2018-12-19T05:38:50.091Z,0.03
2018-12-19T05:40:50.089Z,0.03
2018-12-19T05:42:50.087Z,0.03
2018-12-19T05:44:50.112Z,0.04
2018-12-19T05:46:50.401Z,0.08
2018-12-19T05:48:50.352Z,0.09
2018-12-19T05:50:50.364Z,0.08
2018-12-19T05:52:50.367Z,0.10
2018-12-19T05:54:50.354Z,0.15
2018-12-19T05:56:50.504Z,0.15
2018-12-19T05:58:50.534Z,0.13
2018-12-19T06:00:50.500Z,0.14
2018-12-19T06:02:50.603Z,0.15
2018-12-19T06:04:50.062Z,0.17
2018-12-19T06:06:50.331Z,0.17
2018-12-19T06:08:50.324Z,0.18
2018-12-19T06:10:50.403Z,0.19
2018-12-19T06:12:50.440Z,0.20
2018-12-19T06:14:50.439Z,0.19
2018-12-19T06:16:49.746Z,0.19
2018-12-19T06:18:49.724Z,0.17
2018-12-19T06:20:49.758Z,0.11
2018-12-19T06:22:49.824Z,0.04
2018-12-19T06:24:49.869Z,0.00
2018-12-19T07:50:50.494Z,0.02
2018-12-19T07:52:50.631Z,0.05
2018-12-19T07:54:50.540Z,0.08
2018-12-19T07:56:49.785Z,0.11
2018-12-19T07:58:49.862Z,0.14
2018-12-19T08:00:49.848Z,0.21
2018-12-19T08:02:49.866Z,0.23
2018-12-19T08:04:50.441Z,0.27
2018-12-19T08:06:50.606Z,0.29
2018-12-19T08:08:50.595Z,0.35
2018-12-19T08:10:52.700Z,0.39
2018-12-19T08:12:49.797Z,0.43
2018-12-19T08:14:49.868Z,0.47
2018-12-19T08:16:50.221Z,0.50
2018-12-19T08:18:50.254Z,0.50
2018-12-19T08:20:50.251Z,0.50
2018-12-19T08:22:50.317Z,0.53
2018-12-19T08:24:50.449Z,0.56
2018-12-19T08:26:50.608Z,0.60
2018-12-19T08:28:50.668Z,0.66
2018-12-19T08:30:49.822Z,0.69
2018-12-19T08:32:49.802Z,0.75
2018-12-19T08:34:50.323Z,0.77
2018-12-19T08:36:50.563Z,0.81
2018-12-19T08:38:50.582Z,0.82
2018-12-19T08:40:50.577Z,0.83
2018-12-19T08:42:49.691Z,0.87
2018-12-19T08:44:49.766Z,0.89
2018-12-19T08:46:49.877Z,0.94
2018-12-19T08:48:49.932Z,0.94
2018-12-19T08:50:49.990Z,0.97
2018-12-19T08:52:50.014Z,1.00
2018-12-19T08:54:49.978Z,1.04
2018-12-19T08:56:50.220Z,1.06
2018-12-19T08:58:50.191Z,1.12
2018-12-19T09:00:50.137Z,1.15
2018-12-19T09:02:50.163Z,1.18
2018-12-19T09:04:50.503Z,1.21
2018-12-19T09:06:49.789Z,1.25
2018-12-19T09:08:49.839Z,1.21
2018-12-19T09:10:49.902Z,1.23
2018-12-19T09:12:49.917Z,1.30
2018-12-19T09:14:49.925Z,1.34
2018-12-19T09:16:50.120Z,1.38
2018-12-19T09:18:50.074Z,1.41
2018-12-19T09:20:50.071Z,1.43
2018-12-19T09:22:50.128Z,1.46
2018-12-19T09:24:50.148Z,1.43
2018-12-19T09:26:50.526Z,1.43
2018-12-19T09:28:50.517Z,1.46
2018-12-19T09:30:50.513Z,1.47
2018-12-19T09:32:50.439Z,1.53
2018-12-19T09:34:49.754Z,1.55
2018-12-19T09:36:49.935Z,1.58
2018-12-19T09:38:49.919Z,1.65
2018-12-19T09:40:49.957Z,1.69
2018-12-19T09:42:49.942Z,1.76
2018-12-19T09:44:49.936Z,1.78
2018-12-19T09:46:50.108Z,1.78
2018-12-19T09:48:50.043Z,1.83
2018-12-19T09:50:50.057Z,1.85
2018-12-19T09:52:50.047Z,1.85
2018-12-19T09:54:50.039Z,1.84
2018-12-19T09:56:50.174Z,1.79
2018-12-19T09:58:50.196Z,1.78
2018-12-19T10:00:50.222Z,1.73
2018-12-19T10:02:50.170Z,1.73
2018-12-19T10:04:50.620Z,1.69
2018-12-19T10:06:49.758Z,1.66
2018-12-19T10:08:49.714Z,1.64
2018-12-19T10:10:49.756Z,1.63
2018-12-19T10:12:50.671Z,1.66
2018-12-19T10:14:49.714Z,1.66
2018-12-19T10:16:49.930Z,1.67
2018-12-19T10:18:49.935Z,1.67
2018-12-19T13:16:50.075Z,2.53
2018-12-19T13:18:49.999Z,2.54
2018-12-19T13:20:49.976Z,2.50
2018-12-19T13:22:49.970Z,2.52
2018-12-19T13:24:49.942Z,2.49
2018-12-19T13:26:50.093Z,2.47
2018-12-19T13:28:50.073Z,2.45
2018-12-19T13:30:50.101Z,2.43
2018-12-19T13:32:50.093Z,2.40
2018-12-19T13:34:50.309Z,2.38
2018-12-19T13:36:50.543Z,2.34
2018-12-19T13:38:50.580Z,2.33
2018-12-19T13:40:50.480Z,2.28
2018-12-19T13:42:50.448Z,2.26
2018-12-19T13:44:50.371Z,2.26
2018-12-19T13:46:50.545Z,2.27
2018-12-19T13:48:50.502Z,2.28
2018-12-19T13:50:50.524Z,2.27
2018-12-19T13:52:50.601Z,2.28
2018-12-19T13:54:50.551Z,2.27
2018-12-19T13:56:49.717Z,2.25
2018-12-19T13:58:49.794Z,2.27
2018-12-19T14:00:49.795Z,2.28
2018-12-19T14:02:49.972Z,2.29
2018-12-19T14:04:50.251Z,2.33
2018-12-19T14:06:50.407Z,2.34
2018-12-19T14:08:50.379Z,2.39
2018-12-19T14:10:50.299Z,2.40
2018-12-19T14:12:50.324Z,2.41
2018-12-19T14:14:50.364Z,2.38
2018-12-19T14:16:50.538Z,2.37
2018-12-19T14:18:50.420Z,2.39
2018-12-19T14:20:50.414Z,2.39
2018-12-19T14:22:50.333Z,2.35
2018-12-19T14:24:50.316Z,2.32
2018-12-19T14:26:50.581Z,2.32
2018-12-19T14:28:50.556Z,2.30
2018-12-19T14:30:50.309Z,2.31
2018-12-19T14:32:50.277Z,2.32
2018-12-19T14:34:50.632Z,2.33
2018-12-19T14:36:49.720Z,2.32
2018-12-19T14:38:49.709Z,2.32
2018-12-19T14:40:49.751Z,2.32
2018-12-19T14:42:49.820Z,2.28
2018-12-19T14:44:49.915Z,2.27
2018-12-19T14:46:50.039Z,2.25
2018-12-19T14:48:50.026Z,2.25
2018-12-19T14:50:50.082Z,2.25
2018-12-19T14:52:50.070Z,2.25
2018-12-19T14:54:50.019Z,2.26
2018-12-19T14:56:50.207Z,2.25
2018-12-19T14:58:50.356Z,2.24
2018-12-19T15:00:50.627Z,2.24
2018-12-19T15:02:49.774Z,2.23
2018-12-19T15:04:50.282Z,2.24
2018-12-19T15:06:50.564Z,2.26
2018-12-19T15:08:50.533Z,2.26
2018-12-19T15:10:50.648Z,2.25
2018-12-19T15:12:49.763Z,2.23
2018-12-19T15:14:49.839Z,2.22
2018-12-19T15:16:50.159Z,2.20
2018-12-19T15:18:50.126Z,2.22
2018-12-19T15:20:50.088Z,2.22
2018-12-19T15:22:50.360Z,2.18
2018-12-19T15:24:50.680Z,2.18
2018-12-19T15:26:49.851Z,2.15
2018-12-19T15:28:49.917Z,2.14
2018-12-19T15:30:49.876Z,2.12
2018-12-19T15:32:49.851Z,2.11
2018-12-19T15:34:50.234Z,2.09
2018-12-19T15:36:50.305Z,2.07
2018-12-19T15:38:50.267Z,2.07
2018-12-19T15:40:50.168Z,2.07
2018-12-19T15:42:50.153Z,2.09
2018-12-19T15:44:50.164Z,2.09
2018-12-19T15:46:50.307Z,2.08
2018-12-19T15:48:50.291Z,2.07
2018-12-19T15:50:50.260Z,2.08
2018-12-19T15:52:50.258Z,2.09
2018-12-19T15:54:50.388Z,2.09
2018-12-19T15:56:50.514Z,2.06
2018-12-19T15:58:50.473Z,2.05
2018-12-19T16:00:50.620Z,2.05
2018-12-19T16:02:49.731Z,2.02
2018-12-19T16:04:50.770Z,2.03
2018-12-19T16:06:50.182Z,2.01
2018-12-19T16:08:50.175Z,1.99
2018-12-19T16:10:50.208Z,1.97
2018-12-19T16:12:50.174Z,1.94
2018-12-19T16:14:50.074Z,1.93
2018-12-19T16:16:50.249Z,1.93
2018-12-19T16:18:50.272Z,1.93
2018-12-19T16:20:50.241Z,1.94
2018-12-19T16:22:50.266Z,1.94
2018-12-19T16:24:50.282Z,1.91
2018-12-19T16:26:50.482Z,1.91
2018-12-19T16:28:50.510Z,1.93
2018-12-19T16:30:50.464Z,1.94
2018-12-19T16:32:50.537Z,1.96
2018-12-19T16:34:49.815Z,1.96
2018-12-19T16:36:50.110Z,1.96
2018-12-19T16:38:50.083Z,1.94
2018-12-19T16:40:50.122Z,1.93
2018-12-19T16:42:50.087Z,1.92
2018-12-19T16:44:50.011Z,1.91
2018-12-19T16:46:50.257Z,1.89
2018-12-19T16:48:50.258Z,1.88
2018-12-19T16:50:50.365Z,1.88
2018-12-19T16:52:50.441Z,1.88
2018-12-19T16:54:50.435Z,1.89
2018-12-19T16:56:50.569Z,1.90
2018-12-19T16:58:50.506Z,1.90
2018-12-19T17:00:50.505Z,1.90
2018-12-19T17:02:50.471Z,1.90
2018-12-19T17:04:49.857Z,1.91
2018-12-19T17:06:50.049Z,1.91
2018-12-19T17:08:50.081Z,1.91
2018-12-19T17:10:50.102Z,1.93
2018-12-19T17:12:53.206Z,1.93
2018-12-19T17:14:50.176Z,1.92
2018-12-19T17:16:50.417Z,1.92
2018-12-19T17:18:50.337Z,1.90
2018-12-19T17:20:50.442Z,1.91
2018-12-19T17:22:50.430Z,1.93
2018-12-19T17:24:50.509Z,1.94
2018-12-19T17:26:49.734Z,1.95
2018-12-19T17:28:49.898Z,1.95
2018-12-19T17:30:49.897Z,1.95
2018-12-19T17:32:49.987Z,1.95
2018-12-19T17:34:50.351Z,1.95
2018-12-19T17:36:50.493Z,1.93
2018-12-19T17:38:50.506Z,1.91
2018-12-19T17:40:50.491Z,1.90
2018-12-19T17:42:50.600Z,1.89
2018-12-19T17:44:50.544Z,1.89
2018-12-19T17:46:49.718Z,1.86
2018-12-19T17:48:49.772Z,1.87
2018-12-19T17:50:49.889Z,1.89
2018-12-19T17:52:49.916Z,1.89
2018-12-19T17:54:49.914Z,1.87
2018-12-19T17:56:50.064Z,1.88
2018-12-19T17:58:49.991Z,1.88
2018-12-19T18:00:49.969Z,1.87
2018-12-19T18:02:49.954Z,1.86
2018-12-19T18:04:50.329Z,1.84
2018-12-19T18:06:50.526Z,1.83
2018-12-19T18:08:50.546Z,1.83
2018-12-19T18:10:50.491Z,1.84
2018-12-19T18:12:50.655Z,1.84
2018-12-19T18:14:49.700Z,1.84
2018-12-19T18:16:49.984Z,1.84
2018-12-19T18:18:49.996Z,1.83
2018-12-19T18:20:49.972Z,1.87
2018-12-19T18:22:50.048Z,1.88
2018-12-19T18:24:50.066Z,1.89
2018-12-19T18:26:50.229Z,1.89
2018-12-19T18:28:50.267Z,1.88
2018-12-19T18:30:50.255Z,1.89
2018-12-19T18:32:50.315Z,1.89
2018-12-19T18:34:50.584Z,1.89
2018-12-19T18:36:49.786Z,1.90
2018-12-19T18:38:49.809Z,1.89
2018-12-19T18:40:49.739Z,1.88
2018-12-19T18:42:49.788Z,1.86
2018-12-19T18:44:49.819Z,1.86
2018-12-19T18:46:50.053Z,1.86
2018-12-19T18:48:49.986Z,1.86
2018-12-19T18:50:50.029Z,1.86
2018-12-19T18:52:50.034Z,1.87
2018-12-19T18:54:50.076Z,1.87
2018-12-19T18:56:50.311Z,1.87
2018-12-19T18:58:50.303Z,1.89
2018-12-19T19:00:50.466Z,1.88
2018-12-19T19:02:50.523Z,1.89
2018-12-19T19:04:50.029Z,1.90
2018-12-19T19:06:50.383Z,1.88
2018-12-19T19:08:50.482Z,1.87
2018-12-19T19:10:50.470Z,1.90
2018-12-19T19:12:50.497Z,1.90
2018-12-19T19:14:50.523Z,1.90
2018-12-19T19:16:49.731Z,1.89
2018-12-19T19:18:49.826Z,1.88
2018-12-19T19:20:49.919Z,1.87
2018-12-19T19:22:49.908Z,1.88
2018-12-19T19:24:49.843Z,1.89
2018-12-19T19:26:50.098Z,1.85
2018-12-19T19:28:50.123Z,1.85
2018-12-19T19:30:50.048Z,1.89
2018-12-19T19:32:50.164Z,1.89
2018-12-19T19:34:50.498Z,1.90
2018-12-19T19:36:49.708Z,1.92
2018-12-19T19:38:50.668Z,1.91
2018-12-19T19:40:49.737Z,1.89
2018-12-19T19:42:49.698Z,1.88
2018-12-19T19:44:49.713Z,1.88
2018-12-19T19:46:49.913Z,1.88
2018-12-19T19:48:49.933Z,1.87
2018-12-19T19:50:49.961Z,1.88
2018-12-19T19:52:50.982Z,1.88
2018-12-19T19:54:49.936Z,1.87
2018-12-19T19:56:50.137Z,1.88
2018-12-19T19:58:50.143Z,1.87
2018-12-19T20:00:50.110Z,1.85
2018-12-19T20:02:50.257Z,1.86
2018-12-19T20:04:50.519Z,1.84
2018-12-19T20:06:49.931Z,1.85
2018-12-19T20:08:49.975Z,1.86
2018-12-19T20:10:49.934Z,1.85
2018-12-19T20:12:49.949Z,1.85
2018-12-19T20:14:49.989Z,1.88
2018-12-19T20:16:50.126Z,1.87
2018-12-19T20:18:50.141Z,1.87
2018-12-19T20:20:50.179Z,1.85
2018-12-19T20:22:50.230Z,1.84
2018-12-19T20:24:50.206Z,1.84
2018-12-19T20:26:50.337Z,1.83
2018-12-19T20:28:50.329Z,1.84
2018-12-19T20:30:50.321Z,1.85
2018-12-19T20:32:50.316Z,1.87
2018-12-19T20:34:50.577Z,1.87
2018-12-19T20:36:49.734Z,1.88
2018-12-19T20:38:49.706Z,1.86
2018-12-19T20:40:49.695Z,1.85
2018-12-19T20:42:49.695Z,1.83
2018-12-19T20:44:49.781Z,1.83
2018-12-19T20:46:49.959Z,1.81
2018-12-19T20:48:49.966Z,1.81
2018-12-19T20:50:50.016Z,1.82
2018-12-19T20:52:50.048Z,1.85
2018-12-19T20:54:50.035Z,1.85
2018-12-19T20:56:50.516Z,1.86
2018-12-19T20:58:50.673Z,1.85
2018-12-19T21:00:49.829Z,1.84
2018-12-19T21:02:49.936Z,1.84
2018-12-19T21:04:50.114Z,1.84
2018-12-19T21:06:50.298Z,1.83
2018-12-19T21:08:50.277Z,1.82
2018-12-19T21:10:50.357Z,1.82
2018-12-19T21:12:50.303Z,1.82
2018-12-19T21:14:50.340Z,1.83
2018-12-19T21:16:50.562Z,1.84
2018-12-19T21:18:50.653Z,1.84
2018-12-19T21:20:49.754Z,1.85
2018-12-19T21:22:50.168Z,1.85
2018-12-19T21:24:50.185Z,1.84
2018-12-19T21:26:50.388Z,1.85
2018-12-19T21:28:50.417Z,1.84
2018-12-19T21:30:50.422Z,1.86
2018-12-19T21:32:50.416Z,1.85
2018-12-19T21:34:49.908Z,1.84
2018-12-19T21:36:50.169Z,1.82
2018-12-19T21:38:50.203Z,1.81
2018-12-19T21:40:50.317Z,1.81
2018-12-19T21:42:50.374Z,1.82
2018-12-19T21:44:50.390Z,1.82
2018-12-19T21:46:49.806Z,1.80
2018-12-19T21:48:50.013Z,1.80
2018-12-19T21:50:50.035Z,1.80
2018-12-19T21:52:50.103Z,1.79
2018-12-19T21:54:50.223Z,1.80
2018-12-19T21:56:50.502Z,1.77
2018-12-19T21:58:50.524Z,1.77
2018-12-19T22:00:50.669Z,1.77
2018-12-19T22:02:49.857Z,1.76
2018-12-19T22:04:50.485Z,1.74
2018-12-19T22:06:49.716Z,1.75
2018-12-19T22:08:49.874Z,1.75
2018-12-19T22:10:49.973Z,1.75
2018-12-19T22:12:50.066Z,1.77
2018-12-19T22:14:50.241Z,1.76
2018-12-19T22:16:50.669Z,1.75
2018-12-19T22:18:49.916Z,1.74
2018-12-19T22:20:50.002Z,1.74
2018-12-19T22:22:50.175Z,1.73
2018-12-19T22:24:50.349Z,1.74
2018-12-19T22:26:50.728Z,1.76
2018-12-19T22:28:49.916Z,1.77
2018-12-19T22:30:50.078Z,1.77
2018-12-19T22:32:50.249Z,1.77
2018-12-19T22:34:50.663Z,1.75
2018-12-19T22:36:50.056Z,1.75
2018-12-19T22:38:50.234Z,1.74
2018-12-19T22:40:50.486Z,1.72
2018-12-19T22:42:50.749Z,1.70
2018-12-19T22:44:50.011Z,1.71
2018-12-19T22:46:50.397Z,1.73
2018-12-19T22:48:50.529Z,1.75
2018-12-19T22:50:50.636Z,1.75
2018-12-19T22:52:49.930Z,1.74
2018-12-19T22:54:50.153Z,1.73
2018-12-19T22:56:50.589Z,1.70
2018-12-19T22:58:49.900Z,1.71
2018-12-19T23:00:50.178Z,1.73
2018-12-19T23:02:50.298Z,1.75
2018-12-19T23:04:50.615Z,1.76
2018-12-19T23:06:50.032Z,1.78
2018-12-19T23:08:50.347Z,1.78
2018-12-19T23:10:50.611Z,1.76
2018-12-19T23:12:49.897Z,1.78
2018-12-19T23:14:49.931Z,1.79
2018-12-19T23:16:50.344Z,1.79
2018-12-19T23:18:50.617Z,1.79
2018-12-19T23:20:50.059Z,1.80
2018-12-19T23:22:50.205Z,1.82
2018-12-19T23:24:50.600Z,1.84
2018-12-19T23:26:50.243Z,1.85
2018-12-19T23:28:50.554Z,1.87
2018-12-19T23:30:50.897Z,1.89
2018-12-19T23:32:50.030Z,1.88
2018-12-19T23:34:50.430Z,1.88
2018-12-19T23:36:49.831Z,1.85
2018-12-19T23:38:50.112Z,1.85
2018-12-19T23:40:50.443Z,1.86
2018-12-19T23:42:50.807Z,1.88
2018-12-19T23:44:50.021Z,1.89
2018-12-19T23:46:50.480Z,1.88
2018-12-19T23:48:50.691Z,1.87
2018-12-19T23:50:49.831Z,1.86
2018-12-19T23:52:50.045Z,1.84
2018-12-19T23:54:50.327Z,1.85
2018-12-19T23:56:49.852Z,1.86
2018-12-19T23:58:50.046Z,1.85
